Time;durP1;ratioP1;P1;durP2;ratioP2;P2;SDS_P1;SDS_P2;PMS_P1;PMS_P2;Temp;Humidity;BMP_temperature;BMP_pressure;BME280_temperature;BME280_humidity;BME280_pressure;Samples;Min_cycle;Max_cycle;Signal;HPM_P1;HPM_P2
2021/10/13 00:00:14;;;;;;;5.53;2.90;;;7.90;99.90;;;;;;5052362;28;20032;-86
2021/10/13 00:02:39;;;;;;;4.23;2.10;;;7.80;99.90;;;;;;5033635;28;20037;-87
2021/10/13 00:05:06;;;;;;;8.53;2.93;;;7.80;99.90;;;;;;5013218;28;20387;-86
2021/10/13 00:07:32;;;;;;;4.90;2.40;;;7.80;99.90;;;;;;5013329;28;20095;-86
2021/10/13 00:09:58;;;;;;;4.37;2.00;;;7.80;99.90;;;;;;5013951;28;20030;-86
2021/10/13 00:12:25;;;;;;;5.30;2.83;;;7.80;99.90;;;;;;5028932;28;20042;-86
2021/10/13 00:14:51;;;;;;;4.47;2.17;;;7.80;99.90;;;;;;5027441;28;20491;-86
2021/10/13 00:17:16;;;;;;;5.93;2.70;;;7.90;99.90;;;;;;5025147;28;20038;-86
2021/10/13 00:19:42;;;;;;;4.53;2.40;;;7.80;99.90;;;;;;5020285;28;20026;-87
2021/10/13 00:22:08;;;;;;;4.67;2.07;;;7.70;99.90;;;;;;5031667;28;20036;-86
2021/10/13 00:24:33;;;;;;;5.63;2.47;;;7.70;99.90;;;;;;5031712;28;20032;-87
2021/10/13 00:26:59;;;;;;;4.97;2.30;;;7.70;99.90;;;;;;5018585;28;20030;-86
2021/10/13 00:29:25;;;;;;;4.40;2.37;;;7.70;99.90;;;;;;5011054;28;20430;-87
2021/10/13 00:31:50;;;;;;;6.20;2.50;;;7.70;99.90;;;;;;5015152;28;20025;-86
2021/10/13 00:34:16;;;;;;;6.70;2.83;;;7.70;99.90;;;;;;5019577;28;20371;-86
2021/10/13 00:36:42;;;;;;;7.47;3.20;;;7.70;99.90;;;;;;5020028;28;20087;-86
2021/10/13 00:39:08;;;;;;;7.17;2.73;;;7.60;99.90;;;;;;5018406;28;20088;-86
2021/10/13 00:41:33;;;;;;;5.93;3.07;;;7.60;99.90;;;;;;5017843;28;20076;-87
2021/10/13 00:43:59;;;;;;;5.63;2.77;;;7.60;99.90;;;;;;5018672;28;20116;-87
2021/10/13 00:46:24;;;;;;;5.97;3.07;;;7.60;99.90;;;;;;5034982;28;20457;-86
2021/10/13 00:48:50;;;;;;;6.87;2.67;;;7.60;99.90;;;;;;5034552;28;20030;-86
2021/10/13 00:51:16;;;;;;;6.70;2.70;;;7.60;99.90;;;;;;5034125;28;20077;-86
2021/10/13 00:53:42;;;;;;;4.07;2.07;;;7.60;99.90;;;;;;5017935;28;20142;-86
2021/10/13 00:56:08;;;;;;;7.10;2.67;;;7.60;99.90;;;;;;5019322;28;20121;-86
2021/10/13 00:58:33;;;;;;;4.23;2.47;;;7.60;99.90;;;;;;5017875;28;20034;-86
2021/10/13 01:01:01;;;;;;;5.20;2.23;;;7.60;99.90;;;;;;5023965;28;20041;-86
2021/10/13 01:03:52;;;;;;;5.13;2.30;;;7.60;99.90;;;;;;5017399;28;20088;-86
2021/10/13 01:06:27;;;;;;;4.27;2.00;;;7.60;99.90;;;;;;5017308;28;20117;-86
2021/10/13 01:09:54;;;;;;;5.47;2.07;;;7.60;99.90;;;;;;5033880;28;20037;-86
2021/10/13 01:12:38;;;;;;;3.80;1.83;;;7.60;99.90;;;;;;4977343;28;20479;-86
2021/10/13 01:15:29;;;;;;;5.43;2.73;;;7.50;99.90;;;;;;4976902;28;20519;-86
2021/10/13 01:18:07;;;;;;;5.60;2.53;;;7.50;99.90;;;;;;5029017;28;20048;-86
2021/10/13 01:20:44;;;;;;;4.60;2.60;;;7.50;99.90;;;;;;5035205;28;20029;-86
2021/10/13 01:23:43;;;;;;;5.80;2.37;;;7.60;99.90;;;;;;5038626;28;20028;-86
2021/10/13 01:26:18;;;;;;;5.50;2.80;;;7.50;99.90;;;;;;5027162;28;20346;-86
2021/10/13 01:28:45;;;;;;;6.13;2.80;;;7.50;99.90;;;;;;5017615;28;20092;-85
2021/10/13 01:31:22;;;;;;;4.97;2.23;;;7.50;99.90;;;;;;5016502;28;20486;-86
2021/10/13 01:33:56;;;;;;;5.47;2.23;;;7.50;99.90;;;;;;5018933;28;20105;-86
2021/10/13 01:36:26;;;;;;;4.07;2.37;;;7.50;99.90;;;;;;5018923;28;20168;-86
2021/10/13 01:38:53;;;;;;;6.33;2.40;;;7.50;99.90;;;;;;5018269;28;20057;-86
2021/10/13 01:41:21;;;;;;;4.67;2.67;;;7.50;99.90;;;;;;5021965;28;20053;-86
2021/10/13 01:43:50;;;;;;;4.77;2.40;;;7.50;99.90;;;;;;5041824;28;20104;-86
2021/10/13 01:46:20;;;;;;;3.93;1.77;;;7.50;99.90;;;;;;5055899;28;20029;-85
2021/10/13 01:48:46;;;;;;;4.30;2.00;;;7.50;99.90;;;;;;5054282;28;20028;-85
2021/10/13 01:51:13;;;;;;;4.93;2.13;;;7.50;99.90;;;;;;5054949;28;20021;-86
2021/10/13 01:53:40;;;;;;;4.50;1.87;;;7.50;99.90;;;;;;5020769;28;20033;-86
2021/10/13 01:56:07;;;;;;;4.40;1.83;;;7.50;99.90;;;;;;5030480;28;20051;-86
2021/10/13 01:58:36;;;;;;;5.60;2.60;;;7.50;99.90;;;;;;5030589;28;20390;-86
2021/10/13 02:01:02;;;;;;;4.63;2.07;;;7.50;99.90;;;;;;5034395;28;20033;-86
2021/10/13 02:03:30;;;;;;;4.90;2.53;;;7.50;99.90;;;;;;5033753;28;20127;-86
2021/10/13 02:06:00;;;;;;;5.63;2.50;;;7.40;99.90;;;;;;5032449;28;20591;-86
2021/10/13 02:08:26;;;;;;;4.93;2.20;;;7.50;99.90;;;;;;5015364;28;20124;-85
2021/10/13 02:10:55;;;;;;;4.80;2.23;;;7.50;99.90;;;;;;5014351;28;20501;-86
2021/10/13 02:13:22;;;;;;;5.03;2.23;;;7.50;99.90;;;;;;5015075;28;20084;-85
2021/10/13 02:15:50;;;;;;;5.73;2.80;;;7.40;99.90;;;;;;5030677;28;20036;-86
2021/10/13 02:18:26;;;;;;;5.17;2.67;;;7.50;99.90;;;;;;5033536;28;20030;-86
2021/10/13 02:20:54;;;;;;;4.90;2.17;;;7.50;99.90;;;;;;5033607;28;20035;-87
2021/10/13 02:23:22;;;;;;;6.63;3.30;;;7.50;99.90;;;;;;5023456;28;20029;-86
2021/10/13 02:25:50;;;;;;;4.90;2.40;;;7.50;99.90;;;;;;5039645;28;20025;-87
2021/10/13 02:28:32;;;;;;;6.83;2.67;;;7.50;99.90;;;;;;5054004;28;20029;-86
2021/10/13 02:30:57;;;;;;;7.70;2.70;;;7.50;99.90;;;;;;5040159;28;20045;-86
2021/10/13 02:33:24;;;;;;;6.83;3.13;;;7.50;99.90;;;;;;5045916;28;20029;-87
2021/10/13 02:35:51;;;;;;;5.63;2.73;;;7.50;99.90;;;;;;5034245;28;20402;-86
2021/10/13 02:38:17;;;;;;;5.53;2.53;;;7.50;99.90;;;;;;5032769;28;20111;-86
2021/10/13 02:40:42;;;;;;;4.80;2.57;;;7.50;99.90;;;;;;5028509;28;20057;-86
2021/10/13 02:43:10;;;;;;;4.67;2.30;;;7.50;99.90;;;;;;5014379;28;20044;-86
2021/10/13 02:45:43;;;;;;;5.40;2.70;;;7.40;99.90;;;;;;5033365;28;20660;-86
2021/10/13 02:48:16;;;;;;;4.77;2.50;;;7.40;99.90;;;;;;5028993;28;20034;-86
2021/10/13 02:50:53;;;;;;;5.23;1.90;;;7.40;99.90;;;;;;5031483;28;20037;-86
2021/10/13 02:53:34;;;;;;;5.57;2.70;;;7.50;99.90;;;;;;5033096;28;20092;-86
2021/10/13 02:56:13;;;;;;;5.37;2.50;;;7.40;99.90;;;;;;5030446;28;20037;-86
2021/10/13 02:58:55;;;;;;;6.00;2.53;;;7.40;99.90;;;;;;5014235;28;20030;-86
2021/10/13 03:01:24;;;;;;;4.35;1.90;;;7.40;99.90;;;;;;5031740;28;20025;-85
2021/10/13 03:04:02;;;;;;;5.97;2.30;;;7.50;99.90;;;;;;5032285;28;20032;-87
2021/10/13 03:06:36;;;;;;;4.97;2.60;;;7.50;99.90;;;;;;5016828;28;20029;-86
2021/10/13 03:09:03;;;;;;;10.47;2.50;;;7.50;99.90;;;;;;5013209;28;20132;-86
2021/10/13 03:11:30;;;;;;;5.80;2.40;;;7.40;99.90;;;;;;5027683;28;20383;-86
2021/10/13 03:13:59;;;;;;;6.27;2.83;;;7.50;99.90;;;;;;5028266;28;20022;-86
2021/10/13 03:16:26;;;;;;;4.30;2.27;;;7.50;99.90;;;;;;5013741;28;20426;-86
2021/10/13 03:18:52;;;;;;;5.57;2.13;;;7.50;99.90;;;;;;5029488;28;20136;-86
2021/10/13 03:21:19;;;;;;;5.53;2.70;;;7.50;99.90;;;;;;5013094;28;20549;-86
2021/10/13 03:23:45;;;;;;;5.20;2.17;;;7.50;99.90;;;;;;5021885;28;20033;-86
2021/10/13 03:26:12;;;;;;;7.13;2.80;;;7.50;99.90;;;;;;5031804;28;20136;-86
2021/10/13 03:28:40;;;;;;;5.00;2.27;;;7.50;99.90;;;;;;5031904;28;21991;-86
2021/10/13 03:31:07;;;;;;;7.97;2.47;;;7.40;99.90;;;;;;5026627;28;20030;-86
2021/10/13 03:33:33;;;;;;;6.20;2.40;;;7.40;99.90;;;;;;5027995;28;20132;-86
2021/10/13 03:35:59;;;;;;;7.27;3.00;;;7.50;99.90;;;;;;5028003;28;20125;-87
2021/10/13 03:38:25;;;;;;;6.43;2.83;;;7.40;99.90;;;;;;5027369;28;20057;-86
2021/10/13 03:40:51;;;;;;;4.90;2.30;;;7.40;99.90;;;;;;5027332;28;20493;-85
2021/10/13 03:43:17;;;;;;;5.20;2.47;;;7.40;99.90;;;;;;5033113;28;20029;-86
2021/10/13 03:45:43;;;;;;;6.17;2.63;;;7.40;99.90;;;;;;5033278;28;20479;-87
2021/10/13 03:48:08;;;;;;;5.90;2.40;;;7.40;99.90;;;;;;5017635;28;20057;-86
2021/10/13 03:50:34;;;;;;;5.27;2.60;;;7.40;99.90;;;;;;5027074;28;20040;-86
2021/10/13 03:52:59;;;;;;;5.47;2.40;;;7.40;99.90;;;;;;5027684;28;20388;-86
2021/10/13 03:55:25;;;;;;;5.70;2.43;;;7.40;99.90;;;;;;5027171;28;20033;-86
2021/10/13 03:57:51;;;;;;;8.47;2.47;;;7.40;99.90;;;;;;5016852;28;20034;-86
2021/10/13 04:00:19;;;;;;;4.97;2.13;;;7.40;99.90;;;;;;5011595;28;20033;-86
2021/10/13 04:02:45;;;;;;;4.93;2.70;;;7.40;99.90;;;;;;5011894;28;20092;-87
2021/10/13 04:05:11;;;;;;;5.33;2.30;;;7.40;99.90;;;;;;5011566;28;20030;-86
2021/10/13 04:07:37;;;;;;;4.77;2.20;;;7.40;99.90;;;;;;5014276;28;20037;-86
2021/10/13 04:10:06;;;;;;;6.50;2.53;;;7.40;99.90;;;;;;5029184;28;20045;-87
2021/10/13 04:12:33;;;;;;;6.23;2.57;;;7.30;99.90;;;;;;5012423;28;20283;-86
2021/10/13 04:14:59;;;;;;;5.00;2.77;;;7.30;99.90;;;;;;5027330;28;20098;-85
2021/10/13 04:17:24;;;;;;;8.73;3.17;;;7.30;99.90;;;;;;5037511;28;20036;-86
2021/10/13 04:19:50;;;;;;;5.50;2.60;;;7.30;99.90;;;;;;5041604;28;20028;-86
2021/10/13 04:22:15;;;;;;;7.33;3.30;;;7.30;99.90;;;;;;5028738;28;20029;-86
2021/10/13 04:24:41;;;;;;;5.33;2.80;;;7.30;99.90;;;;;;5028823;28;20040;-86
2021/10/13 04:27:07;;;;;;;6.87;3.40;;;7.30;99.90;;;;;;5030042;28;20040;-86
2021/10/13 04:29:33;;;;;;;5.77;2.63;;;7.30;99.90;;;;;;5029320;28;20131;-86
2021/10/13 04:31:58;;;;;;;8.23;2.97;;;7.30;99.90;;;;;;5028645;28;20240;-86
2021/10/13 04:34:24;;;;;;;5.40;2.57;;;7.20;99.90;;;;;;5028663;28;20026;-86
2021/10/13 04:36:49;;;;;;;6.93;2.70;;;7.20;99.90;;;;;;5040195;28;20021;-86
2021/10/13 04:39:15;;;;;;;7.30;2.93;;;7.20;99.90;;;;;;5036813;28;20033;-86
2021/10/13 04:41:40;;;;;;;5.20;2.43;;;7.20;99.90;;;;;;5028103;28;20091;-86
2021/10/13 04:44:06;;;;;;;7.77;3.00;;;7.20;99.90;;;;;;5029354;28;20030;-86
2021/10/13 04:46:32;;;;;;;5.63;2.83;;;7.20;99.90;;;;;;5028397;28;20034;-85
2021/10/13 04:48:59;;;;;;;7.07;2.70;;;7.20;99.90;;;;;;5024559;28;20486;-86
2021/10/13 04:51:24;;;;;;;5.73;2.87;;;7.20;99.90;;;;;;5025900;28;20473;-86
2021/10/13 04:53:50;;;;;;;6.03;2.80;;;7.20;99.90;;;;;;5025695;28;20017;-85
2021/10/13 04:56:16;;;;;;;7.93;3.07;;;7.20;99.90;;;;;;5030072;28;20029;-85
2021/10/13 04:58:41;;;;;;;6.13;2.43;;;7.20;99.90;;;;;;5026906;28;20029;-86
2021/10/13 05:01:07;;;;;;;6.23;2.90;;;7.20;99.90;;;;;;5037753;28;20064;-86
2021/10/13 05:03:33;;;;;;;7.70;2.77;;;7.20;99.90;;;;;;5031545;28;20029;-86
2021/10/13 05:05:59;;;;;;;7.47;2.77;;;7.10;99.90;;;;;;5038943;28;20446;-86
2021/10/13 05:08:25;;;;;;;5.33;2.90;;;7.00;99.90;;;;;;5030979;28;20033;-86
2021/10/13 05:10:50;;;;;;;6.93;2.60;;;7.00;99.90;;;;;;5035194;28;20032;-86
2021/10/13 05:13:16;;;;;;;6.80;2.90;;;7.00;99.90;;;;;;5026477;28;20099;-86
2021/10/13 05:15:43;;;;;;;7.30;3.27;;;7.00;99.90;;;;;;5027038;28;20032;-86
2021/10/13 05:18:10;;;;;;;5.73;2.77;;;7.00;99.90;;;;;;5030606;28;20026;-85
2021/10/13 05:20:38;;;;;;;6.33;3.03;;;7.00;99.90;;;;;;5033501;28;20079;-85
2021/10/13 05:23:05;;;;;;;8.20;2.93;;;7.00;99.90;;;;;;5040559;28;20026;-85
2021/10/13 05:25:31;;;;;;;6.80;2.80;;;7.00;99.90;;;;;;5034008;28;20432;-84
2021/10/13 05:27:57;;;;;;;7.60;2.93;;;7.00;99.90;;;;;;5039385;28;20032;-85
2021/10/13 05:30:22;;;;;;;6.97;3.17;;;6.90;99.90;;;;;;5043602;28;20029;-85
2021/10/13 05:32:48;;;;;;;6.87;2.60;;;6.90;99.90;;;;;;5051108;28;20378;-85
2021/10/13 05:35:14;;;;;;;10.00;3.30;;;6.90;99.90;;;;;;5039583;28;20104;-85
2021/10/13 05:37:39;;;;;;;4.97;2.47;;;7.00;99.90;;;;;;5053006;28;20028;-85
2021/10/13 05:40:06;;;;;;;7.50;2.70;;;6.80;99.90;;;;;;5044458;28;20040;-86
2021/10/13 05:42:31;;;;;;;5.63;2.47;;;6.90;99.90;;;;;;5032490;28;20108;-87
2021/10/13 05:44:57;;;;;;;5.20;2.37;;;6.90;99.90;;;;;;5025652;28;20124;-86
2021/10/13 05:47:23;;;;;;;6.70;2.77;;;6.90;99.90;;;;;;5010022;28;20025;-86
2021/10/13 05:49:48;;;;;;;6.67;2.57;;;6.90;99.90;;;;;;5010466;28;20065;-86
2021/10/13 05:52:14;;;;;;;7.63;3.27;;;6.90;99.90;;;;;;5020745;28;20034;-86
2021/10/13 05:54:40;;;;;;;8.03;3.17;;;7.00;99.90;;;;;;5030333;28;20022;-86
2021/10/13 05:57:07;;;;;;;8.07;3.20;;;6.90;99.90;;;;;;5032461;28;20035;-86
2021/10/13 05:59:36;;;;;;;6.33;2.47;;;6.90;99.90;;;;;;5028288;28;20017;-86
2021/10/13 06:02:01;;;;;;;6.93;3.03;;;6.90;99.90;;;;;;5043661;28;20029;-85
2021/10/13 06:04:27;;;;;;;12.27;3.17;;;6.90;99.90;;;;;;5039624;28;21278;-85
2021/10/13 06:06:52;;;;;;;7.80;3.00;;;6.90;99.90;;;;;;5036903;28;20061;-85
2021/10/13 06:09:18;;;;;;;5.70;2.77;;;6.90;99.90;;;;;;5041627;28;20120;-85
2021/10/13 06:11:43;;;;;;;6.27;2.83;;;7.00;99.90;;;;;;5050933;28;20031;-85
2021/10/13 06:14:09;;;;;;;5.93;2.53;;;7.00;99.90;;;;;;5023239;28;20030;-86
2021/10/13 06:16:35;;;;;;;4.80;2.10;;;7.00;99.90;;;;;;5011995;28;20640;-85
2021/10/13 06:19:00;;;;;;;7.53;3.10;;;7.00;99.90;;;;;;5027358;28;20034;-85
2021/10/13 06:21:26;;;;;;;6.33;2.60;;;7.10;99.90;;;;;;5016219;28;20118;-85
2021/10/13 06:23:51;;;;;;;7.10;2.83;;;7.10;99.90;;;;;;5026976;28;20025;-85
2021/10/13 06:26:18;;;;;;;5.97;2.77;;;7.10;99.90;;;;;;5037774;28;20537;-84
2021/10/13 06:28:43;;;;;;;6.07;2.57;;;7.10;99.90;;;;;;5036828;28;20414;-82
2021/10/13 06:31:09;;;;;;;6.33;2.47;;;7.10;99.90;;;;;;5028772;28;20033;-83
2021/10/13 06:33:36;;;;;;;6.57;2.57;;;7.10;99.90;;;;;;5030229;28;20104;-83
2021/10/13 06:36:07;;;;;;;5.97;2.67;;;7.10;99.90;;;;;;5030568;28;20055;-84
2021/10/13 06:38:34;;;;;;;5.13;2.30;;;7.10;99.90;;;;;;5032029;28;20054;-85
2021/10/13 06:41:00;;;;;;;6.73;2.40;;;7.10;99.90;;;;;;5009162;28;20192;-84
2021/10/13 06:43:27;;;;;;;7.70;2.93;;;7.10;99.90;;;;;;5012075;28;20105;-85
2021/10/13 06:45:53;;;;;;;6.70;2.70;;;7.20;99.90;;;;;;5029167;28;20025;-84
2021/10/13 06:48:21;;;;;;;7.33;3.00;;;7.20;99.90;;;;;;5013497;28;20044;-85
2021/10/13 06:50:48;;;;;;;5.97;3.10;;;7.20;99.90;;;;;;5026638;28;20370;-84
2021/10/13 06:53:14;;;;;;;6.63;3.37;;;7.20;99.90;;;;;;5031466;28;20060;-84
2021/10/13 06:55:42;;;;;;;8.53;3.00;;;7.40;99.90;;;;;;5029251;28;20114;-84
2021/10/13 06:58:08;;;;;;;5.43;2.53;;;7.50;99.90;;;;;;5029890;28;20013;-87
2021/10/13 07:00:34;;;;;;;6.87;3.07;;;7.50;99.90;;;;;;5022795;28;20052;-85
2021/10/13 07:02:59;;;;;;;6.90;2.37;;;7.60;99.90;;;;;;5031569;28;20486;-85
2021/10/13 07:05:25;;;;;;;6.17;2.60;;;7.70;99.90;;;;;;5030753;28;20045;-85
2021/10/13 07:07:50;;;;;;;7.43;2.17;;;7.70;99.90;;;;;;5021248;28;20487;-86
2021/10/13 07:10:17;;;;;;;6.87;3.03;;;7.80;99.90;;;;;;5029233;28;20624;-85
2021/10/13 07:12:43;;;;;;;5.87;2.77;;;7.90;99.90;;;;;;5031787;28;20164;-86
2021/10/13 07:15:10;;;;;;;5.73;1.93;;;8.10;99.90;;;;;;5046558;28;20111;-85
2021/10/13 07:17:35;;;;;;;5.70;1.97;;;8.20;99.90;;;;;;5051473;28;20416;-86
2021/10/13 07:20:04;;;;;;;7.25;2.55;;;8.20;99.90;;;;;;5042732;28;20108;-85
2021/10/13 07:22:30;;;;;;;5.00;1.97;;;8.30;99.90;;;;;;5019238;28;20037;-85
2021/10/13 07:24:57;;;;;;;4.10;1.87;;;8.40;99.90;;;;;;5031016;28;20021;-85
2021/10/13 07:27:22;;;;;;;4.63;1.40;;;8.50;99.90;;;;;;5030442;28;20116;-85
2021/10/13 07:29:56;;;;;;;4.30;1.70;;;8.60;99.90;;;;;;5024911;28;20121;-85
2021/10/13 07:32:24;;;;;;;4.25;1.60;;;8.60;99.90;;;;;;5011501;28;20053;-85
2021/10/13 07:34:49;;;;;;;4.72;1.50;;;8.60;99.90;;;;;;5010020;28;20109;-85
2021/10/13 07:37:15;;;;;;;3.97;1.57;;;8.60;99.90;;;;;;5012610;28;20128;-85
2021/10/13 07:39:41;;;;;;;3.17;1.30;;;8.60;99.90;;;;;;5020233;28;20041;-85
2021/10/13 07:42:06;;;;;;;8.43;1.70;;;8.40;99.90;;;;;;5029036;28;20148;-86
2021/10/13 07:44:32;;;;;;;3.20;1.42;;;8.30;99.90;;;;;;5029795;28;20128;-85
2021/10/13 07:46:57;;;;;;;6.27;1.87;;;8.10;99.90;;;;;;5011363;28;20038;-86
2021/10/13 07:49:23;;;;;;;6.03;1.65;;;8.00;99.90;;;;;;5010229;28;20478;-83
2021/10/13 07:51:49;;;;;;;4.00;1.80;;;8.00;99.90;;;;;;5010979;28;20403;-82
2021/10/13 07:54:14;;;;;;;3.97;1.67;;;7.80;99.90;;;;;;5011899;28;20036;-83
2021/10/13 07:56:40;;;;;;;3.77;1.67;;;7.90;99.90;;;;;;5020574;28;20411;-85
2021/10/13 07:59:06;;;;;;;4.40;1.73;;;8.00;99.90;;;;;;5030555;28;20105;-85
2021/10/13 08:01:31;;;;;;;6.70;2.13;;;8.00;99.90;;;;;;5028481;28;20025;-85
2021/10/13 08:03:57;;;;;;;4.17;1.80;;;8.10;99.90;;;;;;5014104;28;20049;-85
2021/10/13 08:06:23;;;;;;;6.17;2.33;;;8.10;99.90;;;;;;5010884;28;20037;-85
2021/10/13 08:08:48;;;;;;;5.32;1.70;;;8.30;99.90;;;;;;5026103;28;20395;-85
2021/10/13 08:11:14;;;;;;;4.90;1.50;;;8.50;99.90;;;;;;5015789;28;20037;-85
2021/10/13 08:13:39;;;;;;;4.23;1.37;;;8.60;99.90;;;;;;5026447;28;20034;-85
2021/10/13 08:16:05;;;;;;;5.80;1.70;;;8.70;99.90;;;;;;5010869;28;20057;-85
2021/10/13 08:18:31;;;;;;;5.97;2.03;;;8.80;99.90;;;;;;5026067;28;20030;-85
2021/10/13 08:20:57;;;;;;;5.10;2.67;;;8.80;99.90;;;;;;5024041;28;20121;-85
2021/10/13 08:23:23;;;;;;;5.00;1.88;;;9.00;99.90;;;;;;5029072;28;20022;-85
2021/10/13 08:25:49;;;;;;;6.30;1.90;;;8.90;99.90;;;;;;5029147;28;20032;-85
2021/10/13 08:28:15;;;;;;;3.30;1.50;;;8.80;99.90;;;;;;5029051;28;20029;-85
2021/10/13 08:30:40;;;;;;;5.30;2.23;;;8.70;99.90;;;;;;5024632;28;20025;-85
2021/10/13 08:33:06;;;;;;;7.85;2.60;;;8.60;99.90;;;;;;5030805;28;20025;-85
2021/10/13 08:35:31;;;;;;;5.57;2.10;;;8.80;99.90;;;;;;5029309;28;20063;-85
2021/10/13 08:37:57;;;;;;;4.97;2.17;;;8.90;99.90;;;;;;5020679;28;20061;-86
2021/10/13 08:40:23;;;;;;;3.80;1.42;;;9.30;99.90;;;;;;5009492;28;20037;-86
2021/10/13 08:43:15;;;;;;;3.93;1.50;;;9.40;99.90;;;;;;5010637;28;20057;-86
2021/10/13 08:45:41;;;;;;;3.70;1.20;;;9.60;99.90;;;;;;5016891;28;20446;-86
2021/10/13 08:48:07;;;;;;;1.88;0.80;;;9.50;99.90;;;;;;5028898;28;20025;-85
2021/10/13 08:50:37;;;;;;;3.47;0.85;;;9.60;99.90;;;;;;5029309;28;20037;-87
2021/10/13 08:53:04;;;;;;;3.22;1.67;;;9.50;99.90;;;;;;5032392;28;20466;-87
2021/10/13 08:55:29;;;;;;;2.53;0.85;;;9.60;99.90;;;;;;5032543;28;20028;-87
2021/10/13 08:58:07;;;;;;;3.50;1.35;;;9.60;99.90;;;;;;5013213;28;20026;-86
2021/10/13 09:00:33;;;;;;;2.63;1.20;;;9.60;99.90;;;;;;5024804;28;20026;-86
2021/10/13 09:02:58;;;;;;;3.10;1.02;;;9.60;99.90;;;;;;5032915;28;20063;-86
2021/10/13 09:05:24;;;;;;;3.40;1.23;;;9.60;99.90;;;;;;5032102;28;20112;-86
2021/10/13 09:07:53;;;;;;;5.57;1.63;;;9.60;99.90;;;;;;5032912;28;20057;-86
2021/10/13 09:10:32;;;;;;;2.50;1.13;;;9.60;99.90;;;;;;5024169;28;20611;-87
2021/10/13 09:12:59;;;;;;;4.68;1.45;;;9.60;99.90;;;;;;5013088;28;20026;-86
2021/10/13 09:15:26;;;;;;;3.40;1.42;;;9.70;99.90;;;;;;5012826;28;20026;-86
2021/10/13 09:18:04;;;;;;;5.00;2.17;;;9.70;99.90;;;;;;5043764;28;20108;-87
2021/10/13 09:20:38;;;;;;;4.63;1.77;;;9.80;99.90;;;;;;5030072;28;20611;-86
2021/10/13 09:23:21;;;;;;;4.57;2.13;;;9.90;99.90;;;;;;5016145;28;20103;-86
2021/10/13 09:26:03;;;;;;;5.75;2.47;;;9.90;99.90;;;;;;5032893;28;20108;-87
2021/10/13 09:28:29;;;;;;;5.57;2.35;;;9.90;99.90;;;;;;5032488;28;20116;-87
2021/10/13 09:30:55;;;;;;;8.90;3.10;;;9.90;99.90;;;;;;5026791;28;20129;-87
2021/10/13 09:33:20;;;;;;;8.15;4.05;;;9.90;99.90;;;;;;5013830;28;20026;-86
2021/10/13 09:35:47;;;;;;;5.55;2.25;;;9.90;99.90;;;;;;5033364;28;20060;-86
2021/10/13 09:38:16;;;;;;;6.40;2.50;;;9.90;99.90;;;;;;5026491;28;20075;-86
2021/10/13 09:40:42;;;;;;;5.07;2.38;;;10.10;99.90;;;;;;5012259;28;20375;-87
2021/10/13 09:43:44;;;;;;;9.45;2.95;;;10.20;99.90;;;;;;5013459;28;20036;-86
2021/10/13 09:46:12;;;;;;;6.20;2.60;;;10.30;99.90;;;;;;5013434;28;20030;-86
2021/10/13 09:48:40;;;;;;;6.60;2.30;;;10.30;99.90;;;;;;5013573;28;20080;-86
2021/10/13 09:51:20;;;;;;;4.18;1.58;;;10.20;99.90;;;;;;5012709;28;20118;-87
2021/10/13 09:53:46;;;;;;;5.43;2.15;;;9.90;99.90;;;;;;5011778;28;20034;-87
2021/10/13 09:56:32;;;;;;;4.75;1.88;;;9.90;99.90;;;;;;5013145;28;20034;-86
2021/10/13 09:59:11;;;;;;;3.58;1.35;;;9.90;99.90;;;;;;5013199;28;20394;-87
2021/10/13 10:01:37;;;;;;;4.68;1.10;;;9.90;99.90;;;;;;5013112;28;20034;-86
2021/10/13 10:04:06;;;;;;;3.92;1.30;;;9.90;99.90;;;;;;5030460;28;20527;-87
2021/10/13 10:06:34;;;;;;;2.92;1.20;;;9.90;99.90;;;;;;5031937;28;20047;-87
2021/10/13 10:09:00;;;;;;;2.95;1.20;;;10.10;99.90;;;;;;5032554;28;20540;-86
2021/10/13 10:11:39;;;;;;;3.60;1.17;;;10.10;99.90;;;;;;5016646;28;20033;-87
2021/10/13 10:14:24;;;;;;;2.33;1.00;;;10.30;99.90;;;;;;5013275;28;20030;-86
2021/10/13 10:16:50;;;;;;;2.60;0.80;;;10.30;99.90;;;;;;5011650;28;20030;-86
2021/10/13 10:19:25;;;;;;;2.50;1.00;;;10.50;99.90;;;;;;5019408;28;20041;-87
2021/10/13 10:22:11;;;;;;;1.75;0.60;;;10.60;99.90;;;;;;5032246;28;20041;-87
2021/10/13 10:24:46;;;;;;;1.42;0.52;;;10.60;99.90;;;;;;5032518;28;20029;-87
2021/10/13 10:27:24;;;;;;;1.25;0.50;;;10.70;99.90;;;;;;5038136;28;20029;-87
2021/10/13 10:30:00;;;;;;;2.83;0.80;;;10.90;99.90;;;;;;5046778;28;20034;-86
2021/10/13 10:32:26;;;;;;;2.10;0.90;;;11.00;99.90;;;;;;5050198;28;20033;-87
2021/10/13 10:35:04;;;;;;;2.28;0.75;;;11.00;99.90;;;;;;5047824;28;20022;-86
2021/10/13 10:38:08;;;;;;;2.33;0.90;;;11.10;99.90;;;;;;5028197;28;20026;-86
2021/10/13 10:40:38;;;;;;;6.90;1.35;;;11.10;99.90;;;;;;4970042;28;20023;-86
2021/10/13 10:43:23;;;;;;;2.17;0.80;;;11.40;99.90;;;;;;4971037;28;20614;-86
2021/10/13 10:45:58;;;;;;;2.80;0.80;;;11.50;99.90;;;;;;5004462;28;20641;-85
2021/10/13 10:48:26;;;;;;;1.83;0.68;;;11.70;99.90;;;;;;5011065;28;20043;-85
2021/10/13 10:50:51;;;;;;;1.80;0.68;;;11.90;99.90;;;;;;5009875;28;20487;-85
2021/10/13 10:53:27;;;;;;;2.38;0.93;;;11.80;99.90;;;;;;5012123;28;20076;-85
2021/10/13 10:55:54;;;;;;;1.92;0.80;;;11.70;99.90;;;;;;5012560;28;20060;-85
2021/10/13 10:58:31;;;;;;;3.80;1.33;;;11.60;99.90;;;;;;5010675;28;20060;-84
2021/10/13 11:01:07;;;;;;;5.35;1.65;;;11.40;99.90;;;;;;5011394;28;20030;-85
2021/10/13 11:03:38;;;;;;;2.95;1.40;;;11.10;99.90;;;;;;5011873;28;20088;-86
2021/10/13 11:06:33;;;;;;;2.40;0.90;;;11.10;99.90;;;;;;5029625;28;20029;-85
2021/10/13 11:09:04;;;;;;;3.10;1.45;;;10.90;99.90;;;;;;5022444;28;20850;-85
2021/10/13 11:11:51;;;;;;;3.17;1.20;;;10.80;99.90;;;;;;5014521;28;20052;-85
2021/10/13 11:14:24;;;;;;;3.67;1.20;;;10.70;99.90;;;;;;5010217;28;20474;-85
2021/10/13 11:16:54;;;;;;;5.97;1.90;;;10.70;99.90;;;;;;5032660;28;20114;-85
2021/10/13 11:19:27;;;;;;;4.35;2.05;;;10.70;99.90;;;;;;5037926;28;20056;-85
2021/10/13 11:22:03;;;;;;;4.80;2.00;;;10.60;99.90;;;;;;5030282;28;20021;-86
2021/10/13 11:24:29;;;;;;;3.70;1.67;;;10.60;99.90;;;;;;5028585;28;20116;-86
2021/10/13 11:26:55;;;;;;;5.85;2.13;;;10.50;99.90;;;;;;5029433;28;20033;-86
2021/10/13 11:29:27;;;;;;;3.53;1.70;;;10.50;99.90;;;;;;5034248;28;20025;-85
2021/10/13 11:32:26;;;;;;;3.63;1.77;;;10.50;99.90;;;;;;5038152;28;20033;-85
2021/10/13 11:35:01;;;;;;;4.30;1.70;;;10.60;99.90;;;;;;4993097;28;20621;-85
2021/10/13 11:37:28;;;;;;;3.10;1.30;;;10.60;99.90;;;;;;5033550;28;20122;-85
2021/10/13 11:39:54;;;;;;;1.88;0.80;;;10.70;99.90;;;;;;5031359;28;20029;-85
2021/10/13 11:42:24;;;;;;;4.20;1.30;;;11.00;99.90;;;;;;5027605;28;20359;-85
2021/10/13 11:44:52;;;;;;;4.38;0.95;;;11.20;99.90;;;;;;5030063;28;20026;-85
2021/10/13 11:47:35;;;;;;;1.88;0.75;;;11.40;99.90;;;;;;5032154;28;20025;-86
2021/10/13 11:50:05;;;;;;;4.10;0.70;;;11.40;99.90;;;;;;5025676;28;20113;-86
2021/10/13 11:52:32;;;;;;;1.92;0.80;;;11.30;99.90;;;;;;5035954;28;20396;-86
2021/10/13 11:55:00;;;;;;;3.55;0.88;;;11.10;99.90;;;;;;5030309;28;20041;-85
2021/10/13 11:57:26;;;;;;;3.45;1.33;;;10.80;99.90;;;;;;5031105;28;20844;-84
2021/10/13 12:00:12;;;;;;;2.53;1.20;;;10.70;99.90;;;;;;5023496;28;20029;-85
2021/10/13 12:02:38;;;;;;;2.35;0.98;;;10.50;99.90;;;;;;5028286;28;20029;-85
2021/10/13 12:05:06;;;;;;;6.82;1.20;;;10.40;99.90;;;;;;5030278;28;20494;-85
2021/10/13 12:07:44;;;;;;;2.53;1.05;;;10.20;99.90;;;;;;5030526;28;20025;-85
2021/10/13 12:10:11;;;;;;;2.25;1.00;;;10.10;99.90;;;;;;5023243;28;20246;-84
2021/10/13 12:12:39;;;;;;;2.50;0.82;;;10.00;99.90;;;;;;5030277;28;20028;-85
2021/10/13 12:15:19;;;;;;;2.00;0.80;;;10.00;99.90;;;;;;5047873;28;20468;-85
2021/10/13 12:17:44;;;;;;;2.53;1.00;;;10.00;99.90;;;;;;5030225;28;20025;-85
2021/10/13 12:20:21;;;;;;;1.52;0.70;;;10.10;99.90;;;;;;5030687;28;20092;-85
2021/10/13 12:22:49;;;;;;;1.48;0.60;;;10.40;99.90;;;;;;5030173;28;20331;-84
2021/10/13 12:25:22;;;;;;;0.88;0.38;;;10.70;99.90;;;;;;5029030;28;20025;-86
2021/10/13 12:27:48;;;;;;;0.98;0.40;;;11.00;99.90;;;;;;5042193;28;20030;-85
2021/10/13 12:30:28;;;;;;;0.85;0.20;;;11.30;99.90;;;;;;5028964;28;20083;-86
2021/10/13 12:33:20;;;;;;;1.35;0.17;;;11.40;99.90;;;;;;5022873;28;20038;-85
2021/10/13 12:35:45;;;;;;;0.55;0.20;;;11.60;99.90;;;;;;5023372;28;20425;-84
2021/10/13 12:38:16;;;;;;;1.00;0.20;;;11.50;99.90;;;;;;5043378;28;20025;-84
2021/10/13 12:41:06;;;;;;;0.57;0.10;;;11.70;99.90;;;;;;5025824;28;20083;-84
2021/10/13 12:43:37;;;;;;;0.52;0.20;;;11.70;99.90;;;;;;5029518;28;20025;-84
2021/10/13 12:46:24;;;;;;;0.85;0.30;;;11.80;99.90;;;;;;5026791;28;20025;-84
2021/10/13 12:48:50;;;;;;;0.55;0.20;;;12.00;99.90;;;;;;5026058;28;20022;-85
2021/10/13 12:51:16;;;;;;;0.50;0.20;;;12.20;99.90;;;;;;5019143;28;20030;-84
2021/10/13 12:53:44;;;;;;;0.73;0.30;;;12.30;99.90;;;;;;5029877;28;20021;-85
2021/10/13 12:56:10;;;;;;;0.22;0.10;;;12.30;99.90;;;;;;5029018;28;20381;-85
2021/10/13 12:58:36;;;;;;;0.40;0.10;;;12.40;99.90;;;;;;5029827;28;20029;-84
2021/10/13 13:01:02;;;;;;;0.32;0.15;;;12.50;99.90;;;;;;5027885;28;20099;-84
2021/10/13 13:03:28;;;;;;;0.52;0.20;;;12.50;99.90;;;;;;5036210;28;20032;-84
2021/10/13 13:05:54;;;;;;;0.70;0.28;;;12.50;99.90;;;;;;5033427;28;20021;-84